KDUC/DUC METAR and TAF weather

Enter ICAO airport designator
Station Type Date Time Source
KDUC METAR 2019/05/25 15:35 UTC NOAA

KDUC 251535Z AUTO 17013KT 10SM SCT020 25/21 A3004 RMK AO2 T02540208


Station Type Date Time Source
KDUC Decoded METAR 2019/05/25 15:35 UTC NOAA

Duncan, Halliburton Field Airport, OK, United States (KDUC) 34-28-15N 097-57-36W
May 25, 2019 - 11:35 AM EDT / 2019.05.25 1535 UTC
Wind: from the S (170 degrees) at 15 MPH (13 KT):0
Visibility: 10 mile(s):0
Sky conditions: partly cloudy
Temperature: 77.7 F (25.4 C)
Dew Point: 69.4 F (20.8 C)
Relative Humidity: 75%
Pressure (altimeter): 30.04 in. Hg (1017 hPa)
ob: KDUC 251535Z AUTO 17013KT 10SM SCT020 25/21 A3004 RMK AO2 T02540208
cycle: 15

Station Type Date Time Source
KDUC TAF UTC NOAA

Error!

Example: see airport list